createdAt,value
2018-11-01T00:00:43.925Z,9.63
2018-11-01T00:01:44.080Z,9.59
2018-11-01T00:02:44.239Z,9.57
2018-11-01T00:03:43.893Z,9.58
2018-11-01T00:04:43.921Z,9.58
2018-11-01T00:05:43.933Z,9.57
2018-11-01T00:06:43.985Z,9.56
2018-11-01T00:07:44.036Z,9.58
2018-11-01T00:08:43.927Z,9.54
2018-11-01T00:09:43.948Z,9.54
2018-11-01T00:10:43.898Z,9.52
2018-11-01T00:11:44.338Z,9.52
2018-11-01T00:12:43.933Z,9.5
2018-11-01T00:13:43.916Z,9.52
2018-11-01T00:14:44.119Z,9.51
2018-11-01T00:15:43.947Z,9.52
2018-11-01T00:16:43.912Z,9.51
2018-11-01T00:17:43.888Z,9.52
2018-11-01T00:18:43.917Z,9.52
2018-11-01T00:19:43.893Z,9.5
2018-11-01T00:20:43.885Z,9.51
2018-11-01T00:21:43.977Z,9.51
2018-11-01T00:22:43.886Z,9.49
2018-11-01T00:23:43.885Z,9.51
2018-11-01T00:24:43.908Z,9.51
2018-11-01T00:25:43.865Z,9.52
2018-11-01T00:26:43.913Z,9.52
2018-11-01T00:27:43.911Z,9.51
2018-11-01T00:28:43.858Z,9.5
2018-11-01T00:29:43.852Z,9.5
2018-11-01T00:30:43.889Z,9.5
2018-11-01T00:31:44.269Z,9.51
2018-11-01T00:32:43.944Z,9.49
2018-11-01T00:33:43.872Z,9.47
2018-11-01T00:34:43.867Z,9.49
2018-11-01T00:35:43.874Z,9.47
2018-11-01T00:36:43.919Z,9.46
2018-11-01T00:37:43.875Z,9.46
2018-11-01T00:38:43.912Z,9.46
2018-11-01T00:39:43.907Z,9.44
2018-11-01T00:40:43.856Z,9.42
2018-11-01T00:41:43.852Z,9.4
2018-11-01T00:42:43.956Z,9.43
2018-11-01T00:43:44.104Z,9.43
2018-11-01T00:44:43.863Z,9.4
2018-11-01T00:45:43.824Z,9.41
2018-11-01T00:46:43.864Z,9.41
2018-11-01T00:47:43.968Z,9.41
2018-11-01T00:48:43.848Z,9.41
2018-11-01T00:49:43.942Z,9.43
2018-11-01T00:50:44.033Z,9.43
2018-11-01T00:51:43.840Z,9.41
2018-11-01T00:52:43.935Z,9.43
2018-11-01T00:53:43.870Z,9.4
2018-11-01T00:54:43.874Z,9.4
2018-11-01T00:55:43.831Z,9.39
2018-11-01T00:56:43.993Z,9.4
2018-11-01T00:57:43.908Z,9.39
2018-11-01T00:58:43.797Z,9.39
2018-11-01T00:59:44.268Z,9.4
2018-11-01T01:00:44.107Z,9.4
2018-11-01T01:01:43.831Z,9.4
2018-11-01T01:02:43.939Z,9.38
2018-11-01T01:03:43.808Z,9.38
2018-11-01T01:04:43.840Z,9.34
2018-11-01T01:05:43.852Z,9.37
2018-11-01T01:06:43.841Z,9.35
2018-11-01T01:07:43.894Z,9.36
2018-11-01T01:08:43.865Z,9.38
2018-11-01T01:09:43.791Z,9.38
2018-11-01T01:10:43.805Z,9.38
2018-11-01T01:11:43.905Z,9.37
2018-11-01T01:12:43.832Z,9.35
2018-11-01T01:13:44.223Z,9.38
2018-11-01T01:14:43.860Z,9.35
2018-11-01T01:15:43.867Z,9.37
2018-11-01T01:16:43.816Z,9.33
2018-11-01T01:17:43.835Z,9.34
2018-11-01T01:18:44.172Z,9.34
2018-11-01T01:19:43.788Z,9.36
2018-11-01T01:20:43.831Z,9.32
2018-11-01T01:21:43.938Z,9.32
2018-11-01T01:22:43.824Z,9.32
2018-11-01T01:23:43.840Z,9.32
2018-11-01T01:24:43.819Z,9.32
2018-11-01T01:25:43.862Z,9.31
2018-11-01T01:26:43.793Z,9.28
2018-11-01T01:27:43.796Z,9.29
2018-11-01T01:28:43.812Z,9.28
2018-11-01T01:29:44.249Z,9.31
2018-11-01T01:30:43.820Z,9.31
2018-11-01T01:31:43.804Z,9.31
2018-11-01T01:32:43.861Z,9.29
2018-11-01T01:33:43.762Z,9.26
2018-11-01T01:34:45.156Z,9.25
2018-11-01T01:35:43.820Z,9.25
2018-11-01T01:36:43.869Z,9.21
2018-11-01T01:37:43.781Z,9.21
2018-11-01T01:38:44.295Z,9.2
2018-11-01T01:39:43.784Z,9.17
2018-11-01T01:40:43.774Z,9.19
2018-11-01T01:41:43.778Z,9.18
2018-11-01T01:42:43.850Z,9.17
2018-11-01T01:43:43.782Z,9.17
2018-11-01T01:44:43.761Z,9.16
2018-11-01T01:45:43.874Z,9.15
2018-11-01T01:46:43.808Z,9.15
2018-11-01T01:47:43.811Z,9.14
2018-11-01T01:48:43.808Z,9.13
2018-11-01T01:49:43.740Z,9.13
2018-11-01T01:50:44.872Z,9.12
2018-11-01T01:51:44.173Z,9.12
2018-11-01T01:52:43.748Z,9.11
2018-11-01T01:53:43.754Z,9.1
2018-11-01T01:54:43.804Z,9.1
2018-11-01T01:55:43.768Z,9.09
2018-11-01T01:56:43.775Z,9.1
2018-11-01T01:57:43.846Z,9.09
2018-11-01T01:58:43.853Z,9.09
2018-11-01T01:59:43.788Z,9.09
2018-11-01T02:00:44.353Z,9.09
2018-11-01T02:01:44.131Z,9.09
2018-11-01T02:02:43.752Z,9.09
2018-11-01T02:03:43.753Z,9.09
2018-11-01T02:04:43.742Z,9.11
2018-11-01T02:05:43.730Z,9.13
2018-11-01T02:06:43.727Z,9.1
2018-11-01T02:07:43.825Z,9.09
2018-11-01T02:08:43.785Z,9.08
2018-11-01T02:09:43.729Z,9.08
2018-11-01T02:10:43.740Z,9.09
2018-11-01T02:11:44.847Z,9.09
2018-11-01T02:12:43.779Z,9.09
2018-11-01T02:13:43.713Z,9.09
2018-11-01T02:14:43.820Z,9.12
2018-11-01T02:15:43.803Z,9.07
2018-11-01T02:16:43.855Z,9.05
2018-11-01T02:17:43.748Z,9.07
2018-11-01T02:18:43.689Z,9.08
2018-11-01T02:19:43.961Z,9.05
2018-11-01T02:20:43.721Z,9.06
2018-11-01T02:21:43.721Z,9.03
2018-11-01T02:22:43.811Z,9.02
2018-11-01T02:23:43.725Z,9.01
2018-11-01T02:24:43.859Z,9.02
2018-11-01T02:25:43.708Z,9
2018-11-01T02:26:43.701Z,9
2018-11-01T02:27:44.021Z,9
2018-11-01T02:28:43.745Z,8.99
2018-11-01T02:29:43.717Z,8.96
2018-11-01T02:30:43.725Z,8.96
2018-11-01T02:31:43.847Z,8.95
2018-11-01T02:32:43.746Z,8.94
2018-11-01T02:33:43.760Z,8.9
2018-11-01T02:34:43.702Z,8.9
2018-11-01T02:35:43.753Z,8.89
2018-11-01T02:36:43.698Z,8.88
2018-11-01T02:37:44.388Z,8.87
2018-11-01T02:38:44.820Z,8.85
2018-11-01T02:39:43.702Z,8.83
2018-11-01T02:40:43.740Z,8.82
2018-11-01T02:41:43.664Z,8.78
2018-11-01T02:42:43.680Z,8.78
2018-11-01T02:43:43.889Z,8.77
2018-11-01T02:44:43.804Z,8.75
2018-11-01T02:45:43.666Z,8.75
2018-11-01T02:46:43.900Z,8.75
2018-11-01T02:47:44.247Z,8.74
2018-11-01T02:48:43.794Z,8.69
2018-11-01T02:49:43.656Z,8.61
2018-11-01T02:50:43.678Z,8.4
2018-11-01T02:51:43.671Z,8.33
2018-11-01T02:52:44.100Z,8.26
2018-11-01T02:53:43.776Z,8.24
2018-11-01T02:54:43.650Z,8.21
2018-11-01T02:55:43.620Z,8.2
2018-11-01T02:56:43.680Z,8.16
2018-11-01T02:57:43.750Z,8.05
2018-11-01T02:58:44.158Z,8.06
2018-11-01T02:59:44.852Z,8.03
2018-11-01T03:00:43.631Z,8.01
2018-11-01T03:01:43.728Z,7.97
2018-11-01T03:02:43.716Z,7.86
2018-11-01T03:03:43.664Z,7.79
2018-11-01T03:04:43.648Z,7.74
2018-11-01T03:05:43.735Z,7.74
2018-11-01T03:06:43.664Z,7.59
2018-11-01T03:07:43.747Z,7.41
2018-11-01T03:08:43.647Z,7.41
2018-11-01T03:09:43.856Z,7.43
2018-11-01T03:10:43.661Z,7.42
2018-11-01T03:11:43.664Z,7.39
2018-11-01T03:12:43.699Z,7.37
2018-11-01T03:13:43.632Z,7.39
2018-11-01T03:14:43.652Z,7.32
2018-11-01T03:15:43.676Z,7.34
2018-11-01T03:16:43.699Z,7.36
2018-11-01T03:17:43.708Z,7.35
2018-11-01T03:18:43.650Z,7.37
2018-11-01T03:19:43.799Z,7.38
2018-11-01T03:20:43.665Z,7.38
2018-11-01T03:21:43.662Z,7.37
2018-11-01T03:22:43.979Z,7.37
2018-11-01T03:23:43.610Z,7.29
2018-11-01T03:24:43.804Z,7.3
2018-11-01T03:25:43.637Z,7.31
2018-11-01T03:26:44.607Z,7.31
2018-11-01T03:27:43.693Z,7.31
2018-11-01T03:28:43.929Z,7.32
2018-11-01T03:29:43.661Z,7.33
2018-11-01T03:30:43.649Z,7.33
2018-11-01T03:31:43.648Z,7.35
2018-11-01T03:32:43.643Z,7.35
2018-11-01T03:33:43.654Z,7.35
2018-11-01T03:34:43.593Z,7.36
2018-11-01T03:35:44.268Z,7.36
2018-11-01T03:36:43.775Z,7.33
2018-11-01T03:37:43.694Z,7.32
2018-11-01T03:38:44.051Z,7.29
2018-11-01T03:39:43.634Z,7.28
2018-11-01T03:40:43.626Z,7.23
2018-11-01T03:41:43.653Z,7.16
2018-11-01T03:42:43.773Z,7.05
2018-11-01T03:43:43.595Z,6.93
2018-11-01T03:44:43.594Z,6.94
2018-11-01T03:45:44.963Z,6.97
2018-11-01T03:46:43.615Z,6.98
2018-11-01T03:47:43.642Z,7
2018-11-01T03:48:43.604Z,7.04
2018-11-01T03:49:43.720Z,7.03
2018-11-01T03:50:43.957Z,7.05
2018-11-01T03:51:44.159Z,7.05
2018-11-01T03:52:43.673Z,7.07
2018-11-01T03:53:44.723Z,7.08
2018-11-01T03:54:43.601Z,7.1
2018-11-01T03:55:43.584Z,7.11
2018-11-01T03:56:43.687Z,7.12
2018-11-01T03:57:43.621Z,7.15
2018-11-01T03:58:43.732Z,7.17
2018-11-01T03:59:43.582Z,7.19
2018-11-01T04:00:43.612Z,7.17
2018-11-01T04:01:43.620Z,7.18
2018-11-01T04:02:43.637Z,7.18
2018-11-01T04:03:44.322Z,7.21
2018-11-01T04:04:43.575Z,7.16
2018-11-01T04:05:43.562Z,7.15
2018-11-01T04:06:43.551Z,7.12
2018-11-01T04:07:43.591Z,7.15
2018-11-01T04:08:43.596Z,7.13
2018-11-01T04:09:43.543Z,7.1
2018-11-01T04:10:43.607Z,7.05
2018-11-01T04:11:43.643Z,7.05
2018-11-01T04:12:43.608Z,7.04
2018-11-01T04:13:44.739Z,7.04
2018-11-01T04:14:43.586Z,7.04
2018-11-01T04:15:43.647Z,7.05
2018-11-01T04:16:44.046Z,7.04
2018-11-01T04:17:43.574Z,7.03
2018-11-01T04:18:43.570Z,7.05
2018-11-01T04:19:43.613Z,7.05
2018-11-01T04:20:43.580Z,7.05
2018-11-01T04:21:43.533Z,7.06
2018-11-01T04:22:43.569Z,7.05
2018-11-01T04:23:43.594Z,7.05
2018-11-01T04:24:43.554Z,7.01
2018-11-01T04:25:44.053Z,7
2018-11-01T04:26:43.508Z,6.96
2018-11-01T04:27:44.032Z,6.96
2018-11-01T04:28:43.764Z,6.95
2018-11-01T04:29:43.535Z,6.94
2018-11-01T04:30:43.496Z,6.93
2018-11-01T04:31:43.553Z,6.9
2018-11-01T04:32:43.515Z,6.89
2018-11-01T04:33:45.853Z,6.88
2018-11-01T04:34:43.556Z,6.89
2018-11-01T04:35:43.528Z,6.88
2018-11-01T04:36:43.512Z,6.85
2018-11-01T04:37:43.575Z,6.84
2018-11-01T04:38:43.610Z,6.82
2018-11-01T04:39:43.594Z,6.8
2018-11-01T04:40:45.169Z,6.8
2018-11-01T04:41:43.633Z,6.81
2018-11-01T04:42:43.573Z,6.82
2018-11-01T04:43:43.523Z,6.82
2018-11-01T04:44:43.554Z,6.81
2018-11-01T04:45:43.547Z,6.85
2018-11-01T04:46:43.503Z,6.83
2018-11-01T04:47:45.513Z,6.83
2018-11-01T04:48:43.581Z,6.84
2018-11-01T04:49:43.880Z,6.86
2018-11-01T04:50:43.511Z,6.85
2018-11-01T04:51:43.503Z,6.86
2018-11-01T04:52:43.514Z,6.85
2018-11-01T04:53:43.484Z,6.84
2018-11-01T04:54:43.489Z,6.83
2018-11-01T04:55:43.520Z,6.84
2018-11-01T04:56:43.612Z,6.81
2018-11-01T04:57:43.514Z,6.85
2018-11-01T04:58:43.485Z,6.82
2018-11-01T04:59:43.559Z,6.83
2018-11-01T05:00:43.457Z,6.81
2018-11-01T05:01:43.519Z,6.8
2018-11-01T05:02:43.590Z,6.8
2018-11-01T05:03:43.962Z,6.76
2018-11-01T05:04:43.571Z,6.75
2018-11-01T05:05:43.472Z,6.73
2018-11-01T05:06:44.181Z,6.72
2018-11-01T05:07:43.491Z,6.72
2018-11-01T05:08:43.534Z,6.71
2018-11-01T05:09:43.452Z,6.7
2018-11-01T05:10:43.449Z,6.73
2018-11-01T05:11:43.508Z,6.71
2018-11-01T05:12:44.040Z,6.72
2018-11-01T05:13:43.530Z,6.72
2018-11-01T05:14:43.396Z,6.68
2018-11-01T05:15:43.660Z,6.67
2018-11-01T05:16:43.541Z,6.62
2018-11-01T05:17:43.747Z,6.58
2018-11-01T05:18:43.432Z,6.57
2018-11-01T05:19:43.427Z,6.52
2018-11-01T05:20:43.502Z,6.53
2018-11-01T05:21:43.469Z,6.5
2018-11-01T05:22:43.590Z,6.48
2018-11-01T05:23:43.436Z,6.46
2018-11-01T05:24:44.029Z,6.45
2018-11-01T05:25:44.258Z,6.46
2018-11-01T05:26:43.840Z,6.43
2018-11-01T05:27:43.513Z,6.45
2018-11-01T05:28:43.436Z,6.44
2018-11-01T05:29:43.458Z,6.46
2018-11-01T05:30:43.437Z,6.44
2018-11-01T05:31:43.450Z,6.41
2018-11-01T05:32:43.429Z,6.37
2018-11-01T05:33:43.463Z,6.35
2018-11-01T05:34:43.504Z,6.36
2018-11-01T05:35:43.471Z,6.35
2018-11-01T05:36:43.428Z,6.36
2018-11-01T05:37:43.697Z,6.35
2018-11-01T05:38:43.627Z,6.34
2018-11-01T05:39:43.428Z,6.34
2018-11-01T05:40:43.656Z,6.35
2018-11-01T05:41:43.453Z,6.36
2018-11-01T05:42:43.478Z,6.39
2018-11-01T05:43:43.447Z,6.4
2018-11-01T05:44:43.466Z,6.42
2018-11-01T05:45:43.518Z,6.41
2018-11-01T05:46:43.797Z,6.43
2018-11-01T05:47:43.395Z,6.42
2018-11-01T05:48:43.466Z,6.44
2018-11-01T05:49:43.685Z,6.4
2018-11-01T05:50:43.414Z,6.4
2018-11-01T05:51:43.448Z,6.38
2018-11-01T05:52:43.433Z,6.38
2018-11-01T05:53:43.446Z,6.4
2018-11-01T05:54:43.404Z,6.38
2018-11-01T05:55:43.472Z,6.42
2018-11-01T05:56:43.444Z,6.4
2018-11-01T05:57:43.383Z,6.37
2018-11-01T05:58:43.470Z,6.35
2018-11-01T05:59:43.914Z,6.26
2018-11-01T06:00:43.392Z,6.21
2018-11-01T06:01:43.425Z,6.13
2018-11-01T06:02:43.401Z,6.06
2018-11-01T06:03:43.451Z,5.97
2018-11-01T06:04:43.406Z,5.9
2018-11-01T06:05:44.654Z,5.89
2018-11-01T06:06:43.417Z,5.94
2018-11-01T06:07:43.404Z,5.96
2018-11-01T06:08:43.412Z,5.97
2018-11-01T06:09:43.431Z,5.98
2018-11-01T06:10:43.375Z,5.99
2018-11-01T06:11:43.373Z,6.01
2018-11-01T06:12:43.787Z,6.01
2018-11-01T06:13:43.412Z,6.05
2018-11-01T06:14:43.404Z,6.06
2018-11-01T06:15:43.380Z,5.98
2018-11-01T06:16:43.499Z,5.91
2018-11-01T06:17:43.428Z,5.92
2018-11-01T06:18:43.919Z,5.94
2018-11-01T06:19:43.420Z,5.95
2018-11-01T06:20:44.937Z,6.01
2018-11-01T06:21:43.360Z,6.01
2018-11-01T06:22:43.356Z,6.04
2018-11-01T06:23:43.380Z,6.07
2018-11-01T06:24:43.344Z,6.08
2018-11-01T06:25:43.725Z,6.1
2018-11-01T06:26:43.471Z,6.12
2018-11-01T06:27:43.445Z,6.14
2018-11-01T06:28:43.322Z,6.17
2018-11-01T06:29:43.382Z,6.21
2018-11-01T06:30:43.456Z,6.21
2018-11-01T06:31:43.374Z,6.24
2018-11-01T06:32:43.357Z,6.25
2018-11-01T06:33:43.357Z,6.25
2018-11-01T06:34:43.366Z,6.23
2018-11-01T06:35:43.324Z,6.18
2018-11-01T06:36:43.305Z,6.15
2018-11-01T06:37:43.402Z,6.09
2018-11-01T06:38:43.350Z,6.09
2018-11-01T06:39:43.345Z,6.1
2018-11-01T06:40:43.394Z,6.12
2018-11-01T06:41:43.557Z,6.16
2018-11-01T06:42:43.370Z,6.18
2018-11-01T06:43:43.702Z,6.18
2018-11-01T06:44:43.712Z,6.18
2018-11-01T06:45:43.402Z,6.2
2018-11-01T06:46:43.304Z,6.24
2018-11-01T06:47:43.309Z,6.22
2018-11-01T06:48:43.447Z,6.19
2018-11-01T06:49:43.312Z,6.19
2018-11-01T06:50:43.319Z,6.21
2018-11-01T06:51:43.374Z,6.23
2018-11-01T06:52:43.629Z,6.24
2018-11-01T06:53:43.310Z,6.22
2018-11-01T06:54:43.329Z,6.23
2018-11-01T06:55:43.638Z,6.16
2018-11-01T06:56:43.296Z,6.16
2018-11-01T06:57:43.323Z,6.17
2018-11-01T06:58:44.014Z,6.26
2018-11-01T06:59:43.348Z,6.38
2018-11-01T07:00:43.366Z,6.47
2018-11-01T07:01:43.311Z,6.62
2018-11-01T07:02:43.353Z,6.69
2018-11-01T07:03:43.339Z,6.8
2018-11-01T07:04:43.293Z,6.87
2018-11-01T07:05:44.577Z,6.94
2018-11-01T07:06:43.311Z,6.99
2018-11-01T07:07:43.931Z,6.98
2018-11-01T07:08:43.366Z,7.02
2018-11-01T07:09:43.713Z,7.01
2018-11-01T07:10:43.315Z,6.77
2018-11-01T07:11:43.318Z,6.74
2018-11-01T07:12:43.295Z,6.74
2018-11-01T07:13:43.357Z,6.68
2018-11-01T07:14:43.264Z,6.68
2018-11-01T07:15:43.268Z,6.62
2018-11-01T07:16:43.273Z,6.64
2018-11-01T07:17:44.891Z,6.62
2018-11-01T07:18:43.391Z,6.61
2018-11-01T07:19:43.274Z,6.61
2018-11-01T07:20:43.307Z,6.58
2018-11-01T07:21:43.388Z,6.61
2018-11-01T07:22:43.315Z,6.61
2018-11-01T07:23:43.274Z,6.61
2018-11-01T07:24:43.248Z,6.61
2018-11-01T07:25:43.823Z,6.6
2018-11-01T07:26:43.313Z,6.61
2018-11-01T07:27:43.268Z,6.6
2018-11-01T07:28:43.294Z,6.61
2018-11-01T07:29:43.264Z,6.61
2018-11-01T07:30:43.273Z,6.58
2018-11-01T07:31:43.261Z,6.59
2018-11-01T07:32:44.946Z,6.58
2018-11-01T07:33:43.326Z,6.61
2018-11-01T07:34:43.254Z,6.61
2018-11-01T07:35:43.246Z,6.62
2018-11-01T07:36:43.264Z,6.62
2018-11-01T07:37:43.273Z,6.63
2018-11-01T07:38:43.283Z,6.62
2018-11-01T07:39:43.711Z,6.63
2018-11-01T07:40:43.261Z,6.61
2018-11-01T07:41:43.249Z,6.61
2018-11-01T07:42:43.284Z,6.64
2018-11-01T07:43:43.291Z,6.63
2018-11-01T07:44:43.239Z,6.59
2018-11-01T07:45:43.305Z,6.55
2018-11-01T07:46:43.262Z,6.5
2018-11-01T07:47:43.352Z,6.52
2018-11-01T07:48:45.258Z,6.54
2018-11-01T07:49:43.240Z,6.57
2018-11-01T07:50:43.251Z,6.57
2018-11-01T07:51:43.368Z,6.57
2018-11-01T07:52:44.576Z,6.55
2018-11-01T07:53:43.298Z,6.59
2018-11-01T07:54:43.213Z,6.55
2018-11-01T07:55:43.220Z,6.56
2018-11-01T07:56:43.247Z,6.58
2018-11-01T07:57:43.262Z,6.53
2018-11-01T07:58:43.235Z,6.54
2018-11-01T07:59:43.251Z,6.54
2018-11-01T08:00:43.240Z,6.56
2018-11-01T08:01:43.258Z,6.6
2018-11-01T08:02:43.257Z,6.61
2018-11-01T08:03:43.235Z,6.62
2018-11-01T08:04:43.246Z,6.63
2018-11-01T08:05:43.740Z,6.63
2018-11-01T08:06:43.230Z,6.65
2018-11-01T08:07:43.361Z,6.67
2018-11-01T08:08:43.284Z,6.65
2018-11-01T08:09:43.441Z,6.68
2018-11-01T08:10:43.261Z,6.71
2018-11-01T08:11:43.881Z,6.71
2018-11-01T08:12:43.227Z,6.73
2018-11-01T08:13:43.269Z,6.74
2018-11-01T08:14:43.323Z,6.77
2018-11-01T08:15:43.391Z,6.78
2018-11-01T08:16:43.940Z,6.79
2018-11-01T08:17:43.195Z,6.78
2018-11-01T08:18:43.336Z,6.8
2018-11-01T08:19:44.605Z,6.8
2018-11-01T08:20:45.306Z,6.81
2018-11-01T08:21:43.341Z,6.84
2018-11-01T08:22:43.554Z,6.8
2018-11-01T08:23:43.222Z,6.79
2018-11-01T08:24:43.522Z,6.78
2018-11-01T08:25:43.243Z,6.72
2018-11-01T08:26:43.219Z,6.72
2018-11-01T08:27:43.681Z,6.76
2018-11-01T08:28:43.445Z,6.75
2018-11-01T08:29:43.296Z,6.78
2018-11-01T08:30:43.596Z,6.76
2018-11-01T08:31:43.227Z,6.74
2018-11-01T08:32:43.487Z,6.73
2018-11-01T08:33:43.409Z,6.74
2018-11-01T08:34:43.312Z,6.74
2018-11-01T08:35:43.276Z,6.75
2018-11-01T08:36:43.294Z,6.8
2018-11-01T08:37:43.227Z,6.81
2018-11-01T08:38:43.220Z,6.84
2018-11-01T08:39:43.223Z,6.83
2018-11-01T08:40:43.995Z,6.86
2018-11-01T08:41:43.186Z,6.86
2018-11-01T08:42:43.577Z,6.86
2018-11-01T08:43:43.231Z,6.88
2018-11-01T08:44:43.793Z,6.87
2018-11-01T08:45:43.266Z,6.89
2018-11-01T08:46:43.307Z,6.88
2018-11-01T08:47:43.640Z,6.91
2018-11-01T08:48:43.243Z,6.93
2018-11-01T08:49:43.206Z,6.93
2018-11-01T08:50:43.334Z,6.94
2018-11-01T08:51:43.220Z,6.95
2018-11-01T08:52:43.236Z,6.93
2018-11-01T08:53:43.246Z,6.97
2018-11-01T08:54:43.234Z,6.94
2018-11-01T08:55:43.565Z,6.95
2018-11-01T08:56:43.167Z,6.97
2018-11-01T08:57:43.587Z,6.96
2018-11-01T08:58:43.269Z,6.98
2018-11-01T08:59:43.204Z,6.99
2018-11-01T09:00:43.496Z,6.99
2018-11-01T09:01:43.214Z,6.99
2018-11-01T09:02:43.198Z,7
2018-11-01T09:03:43.274Z,7.03
2018-11-01T09:04:43.290Z,7.04
2018-11-01T09:05:43.283Z,7.03
2018-11-01T09:06:43.236Z,7.04
2018-11-01T09:07:46.135Z,7.03
2018-11-01T09:08:43.131Z,7.01
2018-11-01T09:09:43.430Z,7.05
2018-11-01T09:10:43.144Z,7.06
2018-11-01T09:11:43.666Z,7.07
2018-11-01T09:12:44.393Z,7.09
2018-11-01T09:13:43.168Z,7.06
2018-11-01T09:14:43.406Z,7.1
2018-11-01T09:15:43.385Z,7.1
2018-11-01T09:16:43.310Z,7.11
2018-11-01T09:17:43.759Z,7.11
2018-11-01T09:18:43.265Z,7.12
2018-11-01T09:19:43.234Z,7.15
2018-11-01T09:20:43.476Z,7.16
2018-11-01T09:21:43.508Z,7.17
2018-11-01T09:22:43.276Z,7.18
2018-11-01T09:23:43.527Z,7.19
2018-11-01T09:24:43.324Z,7.23
2018-11-01T09:25:43.178Z,7.23
2018-11-01T09:26:43.658Z,7.25
2018-11-01T09:27:43.167Z,7.23
2018-11-01T09:28:43.104Z,7.23
2018-11-01T09:29:43.136Z,7.23
2018-11-01T09:30:43.212Z,7.26
2018-11-01T09:31:43.303Z,7.27
2018-11-01T09:32:43.439Z,7.26
2018-11-01T09:33:43.176Z,7.29
2018-11-01T09:34:43.137Z,7.28
2018-11-01T09:35:44.346Z,7.3
2018-11-01T09:36:43.173Z,7.29
2018-11-01T09:37:43.223Z,7.34
2018-11-01T09:38:43.071Z,7.31
2018-11-01T09:39:43.181Z,7.31
2018-11-01T09:40:43.243Z,7.3
2018-11-01T09:41:43.250Z,7.33
2018-11-01T09:42:43.200Z,7.31
2018-11-01T09:43:43.071Z,7.34
2018-11-01T09:44:43.106Z,7.35
2018-11-01T09:45:43.219Z,7.34
2018-11-01T09:46:47.971Z,7.34
2018-11-01T09:48:43.351Z,7.38
2018-11-01T09:49:43.064Z,7.37
2018-11-01T09:50:43.183Z,7.39
2018-11-01T09:51:43.117Z,7.38
2018-11-01T09:52:43.056Z,7.41
2018-11-01T09:53:43.187Z,7.41
2018-11-01T09:54:43.486Z,7.43
2018-11-01T09:55:45.081Z,7.43
2018-11-01T09:56:43.048Z,7.46
2018-11-01T09:57:43.153Z,7.45
2018-11-01T09:58:43.913Z,7.44
2018-11-01T09:59:43.312Z,7.47
2018-11-01T10:00:43.145Z,7.49
2018-11-01T10:01:43.270Z,7.49
2018-11-01T10:02:43.120Z,7.48
2018-11-01T10:03:43.284Z,7.49
2018-11-01T10:04:43.306Z,7.5
2018-11-01T10:05:43.319Z,7.52
2018-11-01T10:06:43.686Z,7.51
2018-11-01T10:07:43.240Z,7.53
2018-11-01T10:08:43.212Z,7.54
2018-11-01T10:09:43.245Z,7.54
2018-11-01T10:10:43.145Z,7.54
2018-11-01T10:11:43.052Z,7.55
2018-11-01T10:12:43.166Z,7.56
2018-11-01T10:13:43.191Z,7.6
2018-11-01T10:14:43.013Z,7.61
2018-11-01T10:15:46.643Z,7.66
2018-11-01T10:16:46.676Z,7.68
2018-11-01T10:17:50.593Z,7.69
2018-11-01T10:18:43.710Z,7.74
2018-11-01T10:19:43.166Z,7.76
2018-11-01T10:20:43.218Z,7.79
2018-11-01T10:21:44.026Z,7.81
2018-11-01T10:22:45.414Z,7.85
2018-11-01T10:23:43.370Z,7.86
2018-11-01T10:24:43.425Z,7.87
2018-11-01T10:25:43.516Z,7.86
2018-11-01T10:26:43.711Z,7.87
2018-11-01T10:27:44.698Z,7.91
2018-11-01T10:28:43.032Z,7.91
2018-11-01T10:29:43.308Z,7.92
2018-11-01T10:30:43.385Z,7.91
2018-11-01T10:31:43.116Z,7.9
2018-11-01T10:32:43.004Z,7.91
2018-11-01T10:33:43.597Z,7.93
2018-11-01T10:34:43.958Z,7.93
2018-11-01T10:35:43.060Z,7.93
2018-11-01T10:36:46.307Z,7.93
2018-11-01T10:37:43.645Z,7.93
2018-11-01T10:38:43.161Z,7.96
2018-11-01T10:39:42.999Z,7.96
2018-11-01T10:40:43.566Z,7.98
2018-11-01T10:41:49.224Z,7.94
2018-11-01T10:42:43.373Z,7.95
2018-11-01T10:43:43.612Z,7.95
2018-11-01T10:44:43.911Z,7.96
2018-11-01T10:45:43.293Z,7.97
2018-11-01T10:46:43.277Z,7.94
2018-11-01T10:47:44.534Z,7.89
2018-11-01T10:48:43.299Z,7.87
2018-11-01T10:49:43.070Z,7.89
2018-11-01T10:50:45.377Z,7.89
2018-11-01T10:51:43.281Z,7.9
2018-11-01T10:52:43.102Z,7.92
2018-11-01T10:53:44.359Z,7.95
2018-11-01T10:54:43.074Z,8
2018-11-01T10:55:43.702Z,8.07
2018-11-01T10:56:42.943Z,8.12
2018-11-01T10:57:42.981Z,8.18
2018-11-01T10:58:43.449Z,8.24
2018-11-01T10:59:43.121Z,8.3
2018-11-01T11:00:46.948Z,8.34
2018-11-01T11:01:43.023Z,8.36
2018-11-01T11:02:43.396Z,8.4
2018-11-01T11:03:43.329Z,8.42
2018-11-01T11:04:43.309Z,8.46
2018-11-01T11:05:42.953Z,8.45
2018-11-01T11:06:43.689Z,8.46
2018-11-01T11:07:42.999Z,8.36
2018-11-01T11:08:43.108Z,8.37
2018-11-01T11:09:43.595Z,8.37
2018-11-01T11:10:43.139Z,8.37
2018-11-01T11:11:43.334Z,8.44
2018-11-01T11:12:43.265Z,8.44
2018-11-01T11:13:43.067Z,8.49
2018-11-01T11:14:43.119Z,8.53
2018-11-01T11:15:43.134Z,8.55
2018-11-01T11:16:42.969Z,8.57
2018-11-01T11:17:43.070Z,8.59
2018-11-01T11:18:43.588Z,8.61
2018-11-01T11:19:42.970Z,8.66
2018-11-01T11:20:47.053Z,8.67
2018-11-01T11:21:43.306Z,8.69
2018-11-01T11:22:43.055Z,8.72
2018-11-01T11:23:44.294Z,8.73
2018-11-01T11:24:42.949Z,8.75
2018-11-01T11:25:43.052Z,8.76
2018-11-01T11:26:43.028Z,8.79
2018-11-01T11:27:43.273Z,8.79
2018-11-01T11:28:43.089Z,8.82
2018-11-01T11:29:42.959Z,8.83
2018-11-01T11:30:56.476Z,8.84
2018-11-01T11:32:42.950Z,8.85
2018-11-01T11:33:43.088Z,8.85
2018-11-01T11:34:43.139Z,8.86
2018-11-01T11:35:43.937Z,8.86
2018-11-01T11:36:42.945Z,8.83
2018-11-01T11:37:43.118Z,8.83
2018-11-01T11:38:43.011Z,8.82
2018-11-01T11:39:46.645Z,8.78
2018-11-01T11:40:43.293Z,8.79
2018-11-01T11:41:44.397Z,8.8
2018-11-01T11:42:43.239Z,8.81
2018-11-01T11:43:42.930Z,8.8
2018-11-01T11:44:43.082Z,8.81
2018-11-01T11:45:43.540Z,8.8
2018-11-01T11:46:42.924Z,8.82
2018-11-01T11:47:44.085Z,8.82
2018-11-01T11:48:51.562Z,8.84
2018-11-01T11:49:46.552Z,8.85
2018-11-01T11:50:43.026Z,8.86
2018-11-01T11:51:43.148Z,8.87
2018-11-01T11:52:42.892Z,8.89
2018-11-01T11:53:43.334Z,8.92
2018-11-01T11:54:45.845Z,8.94
2018-11-01T11:55:43.101Z,8.95
2018-11-01T11:56:42.983Z,8.95
2018-11-01T11:57:43.114Z,8.98
2018-11-01T11:58:42.926Z,8.98
2018-11-01T11:59:42.926Z,9
2018-11-01T12:00:43.279Z,9.01
2018-11-01T12:01:43.067Z,9.03
2018-11-01T12:02:43.212Z,9.03
2018-11-01T12:03:42.904Z,9.03
2018-11-01T12:04:43.016Z,9.02
2018-11-01T12:05:43.754Z,9.05
2018-11-01T12:06:43.160Z,9.06
2018-11-01T12:07:43.275Z,9.06
2018-11-01T12:08:43.363Z,9.1
2018-11-01T12:09:43.127Z,9.11
2018-11-01T12:10:42.915Z,9.13
2018-11-01T12:11:42.884Z,9.13
2018-11-01T12:12:43.212Z,9.18
2018-11-01T12:13:43.120Z,9.19
2018-11-01T12:14:42.917Z,9.2
2018-11-01T12:15:42.865Z,9.24
2018-11-01T12:16:42.912Z,9.26
2018-11-01T12:17:42.867Z,9.27
2018-11-01T12:18:42.927Z,9.31
2018-11-01T12:19:42.871Z,9.31
2018-11-01T12:20:42.854Z,9.32
2018-11-01T12:21:42.923Z,9.33
2018-11-01T12:22:42.917Z,9.36
2018-11-01T12:23:43.259Z,9.36
2018-11-01T12:24:42.914Z,9.39
2018-11-01T12:25:43.057Z,9.41
2018-11-01T12:26:43.258Z,9.43
2018-11-01T12:27:43.088Z,9.45
2018-11-01T12:28:45.273Z,9.48
2018-11-01T12:29:43.003Z,9.48
2018-11-01T12:30:42.823Z,9.49
2018-11-01T12:31:42.840Z,9.49
2018-11-01T12:32:42.844Z,9.5
2018-11-01T12:33:43.239Z,9.51
2018-11-01T12:34:42.906Z,9.54
2018-11-01T12:35:44.421Z,9.56
2018-11-01T12:36:42.819Z,9.57
2018-11-01T12:37:42.875Z,9.59
2018-11-01T12:38:42.832Z,9.58
2018-11-01T12:39:42.968Z,9.6
2018-11-01T12:40:42.847Z,9.61
2018-11-01T12:41:44.634Z,9.62
2018-11-01T12:42:42.870Z,9.65
2018-11-01T12:43:42.835Z,9.64
2018-11-01T12:44:42.852Z,9.67
2018-11-01T12:45:42.818Z,9.67
2018-11-01T12:46:43.124Z,9.68
2018-11-01T12:47:42.817Z,9.69
2018-11-01T12:48:42.859Z,9.7
2018-11-01T12:49:43.854Z,9.7
2018-11-01T12:50:42.984Z,9.72
2018-11-01T12:51:42.802Z,9.73
2018-11-01T12:52:43.052Z,9.74
2018-11-01T12:53:42.770Z,9.73
2018-11-01T12:54:42.888Z,9.75
2018-11-01T12:55:43.185Z,9.78
2018-11-01T12:56:42.810Z,9.79
2018-11-01T12:57:42.917Z,9.81
2018-11-01T12:58:42.901Z,9.81
2018-11-01T12:59:42.808Z,9.86
2018-11-01T13:00:42.857Z,9.91
2018-11-01T13:01:42.802Z,9.93
2018-11-01T13:02:45.260Z,10.02
2018-11-01T13:03:43.164Z,10.05
2018-11-01T13:04:42.800Z,10.07
2018-11-01T13:05:43.194Z,10.11
2018-11-01T13:06:43.222Z,10.16
2018-11-01T13:07:42.839Z,10.18
2018-11-01T13:08:42.874Z,10.25
2018-11-01T13:09:42.902Z,10.29
2018-11-01T13:10:43.764Z,10.34
2018-11-01T13:11:42.813Z,10.34
2018-11-01T13:12:42.866Z,10.42
2018-11-01T13:13:42.835Z,10.5
2018-11-01T13:14:43.191Z,10.53
2018-11-01T13:15:42.898Z,10.57
2018-11-01T13:16:42.928Z,10.63
2018-11-01T13:17:42.918Z,10.71
2018-11-01T13:18:42.795Z,10.71
2018-11-01T13:19:43.090Z,10.73
2018-11-01T13:20:43.388Z,10.74
2018-11-01T13:21:42.853Z,10.75
2018-11-01T13:22:42.837Z,10.79